WetterOnline ( https://www.wetteronline.de )

Wetter aktuell Lützow

Aktuelles Wetter: Schwerin (68m)

6-stündlich | Neueste Meldungen
Ortszeit Temperatur Wetter
So, 29.11. 7:00 3.0° C bedeckt
So, 29.11. 1:00 3.1° C Regen
Sa, 28.11. 19:00 3.8° C bedeckt
Sa, 28.11. 13:00 3.0° C bedeckt
Sa, 28.11. 7:00 -2.5° C Nebel
Sa, 28.11. 1:00 -0.3° C Nebel
Fr, 27.11. 19:00 2.2° C Nebel
Fr, 27.11. 13:00 5.6° C wolkig
Ortszeit Temperatur Wetter
So, 29.11. 9:00 3.5° C Sprühregen
So, 29.11. 8:50 3.5° C Sprühregen
So, 29.11. 8:40 3.4° C Sprühregen
So, 29.11. 8:30 3.4° C Sprühregen
So, 29.11. 8:20 3.4° C Sprühregen
So, 29.11. 8:10 3.4° C leichter Regen
So, 29.11. 8:00 3.3° C bedeckt
So, 29.11. 7:30 3.0° C bedeckt
So, 29.11. 7:00 3.0° C bedeckt
So, 29.11. 6:30 3.1° C bedeckt
So, 29.11. 6:00 3.1° C bedeckt
Ortszeit Relative Feuchte Sichtweite
So, 29.11. 7:00 92% 29 km
So, 29.11. 1:00 88% 55 km
Sa, 28.11. 19:00 77% 60 km
Sa, 28.11. 13:00 89% 45 km
Sa, 28.11. 7:00 98% 0.5 km
Sa, 28.11. 1:00 100% 0.3 km
Fr, 27.11. 19:00 100% 100 m
Fr, 27.11. 13:00 92% 20 km
Ortszeit Relative Feuchte Sichtweite
So, 29.11. 9:00 97% 6 km
So, 29.11. 8:50 97% -
So, 29.11. 8:40 97% -
So, 29.11. 8:30 96% 10 km
So, 29.11. 8:20 96% -
So, 29.11. 8:10 95% -
So, 29.11. 8:00 92% 35 km
So, 29.11. 7:30 94% 29 km
So, 29.11. 7:00 92% 29 km
So, 29.11. 6:30 91% 35 km
So, 29.11. 6:00 89% 45 km
Ortszeit Niederschlagsmenge Niederschlagsart
So, 29.11. 7:00 0.1 l/m2 in 12 Std. Regen
So, 29.11. 1:00 0.1 l/m2 in 6 Std. Regen
Sa, 28.11. 19:00 0.0 l/m2 in 12 Std. -
Sa, 28.11. 13:00 0.0 l/m2 in 6 Std. -
Sa, 28.11. 7:00 0.0 l/m2 in 12 Std. -
Sa, 28.11. 1:00 0.0 l/m2 in 6 Std. -
Fr, 27.11. 19:00 0.0 l/m2 in 12 Std. -
Fr, 27.11. 13:00 0.0 l/m2 in 6 Std. -
Ortszeit Niederschlagsmenge Niederschlagsart
So, 29.11. 9:00 0.1 l/m2 in 1 Std. Regen
So, 29.11. 8:50 keine Meldung -
So, 29.11. 8:40 keine Meldung -
So, 29.11. 8:30 0.1 l/m2 in 1 Std. -
So, 29.11. 8:20 keine Meldung -
So, 29.11. 8:10 keine Meldung -
So, 29.11. 8:00 0.1 l/m2 in 1 Std. Regen
So, 29.11. 7:30 0.0 l/m2 in 1 Std. -
So, 29.11. 7:00 0.0 l/m2 in 1 Std. Regen
So, 29.11. 6:30 0.0 l/m2 in 1 Std. -
So, 29.11. 6:00 0.0 l/m2 in 1 Std. -
Ortszeit Stärke Spitze Richtung
km/h Bft. km/h Grad Sektor
So, 29.11. 7:00 7 2 14 340° N
So, 29.11. 1:00 6 1 19 360° N
Sa, 28.11. 19:00 6 1 20 90° O
Sa, 28.11. 13:00 7 2 22 120° SO
Sa, 28.11. 7:00 6 1 11 210° SW
Sa, 28.11. 1:00 0 0 11 - -
Fr, 27.11. 19:00 4 1 14 110° O
Fr, 27.11. 13:00 4 1 7 130° SO
Ortszeit Stärke Spitze Richtung
km/h Bft. km/h Grad Sektor
So, 29.11. 9:00 7 2 18 360° N
So, 29.11. 8:50 7 2 - 360° N
So, 29.11. 8:40 9 2 - 330° NW
So, 29.11. 8:30 7 2 14 340° N
So, 29.11. 8:20 7 2 - 340° N
So, 29.11. 8:10 4 1 - 320° NW
So, 29.11. 8:00 7 2 11 320° NW
So, 29.11. 7:30 7 2 11 330° NW
So, 29.11. 7:00 7 2 11 340° N
So, 29.11. 6:30 7 2 11 350° N
So, 29.11. 6:00 7 2 11 340° N
Ortszeit Untergrenze Bedeckung Gattung
total tief tief mittel hoch
So, 29.11. 7:00 1050 m 8/8 8/8 - - -
So, 29.11. 1:00 690 m 8/8 8/8 - - -
Sa, 28.11. 19:00 690 m 8/8 8/8 - - -
Sa, 28.11. 13:00 510 m 8/8 8/8 - - -
Sa, 28.11. 7:00 <30 m 8/8 0/8 - - -
Sa, 28.11. 1:00 <30 m 8/8 0/8 - - -
Fr, 27.11. 19:00 <30 m 8/8 0/8 - - -
Fr, 27.11. 13:00 30 m 7/8 7/8 - - -
Ortszeit Bedeckungsgrad in Achtel und Wolkenuntergrenze
So, 29.11. 9:00 5(120m) 7(390m) 8(900m)
So, 29.11. 8:50 5(120m) 7(390m) 8(900m)
So, 29.11. 8:40 5(120m) 7(510m) 7(840m)
So, 29.11. 8:30 4(120m) 7(270m) 7(540m)
So, 29.11. 8:20 4(120m) 7(270m) 7(540m)
So, 29.11. 8:10 1(90m) 7(270m)
So, 29.11. 8:00 7(270m) 8(450m)
So, 29.11. 7:30 4(240m) 6(390m) 8(1140m)
So, 29.11. 7:00 8(1050m) 8(1080m)
So, 29.11. 6:30 8(1050m)
So, 29.11. 6:00 8(1050m)
Ortszeit Luftdruck NN (hPa) Tendenz (hPa in 3 Std.)
So, 29.11. 7:00 1028 - 0,1
So, 29.11. 1:00 1028 + 0,2
Sa, 28.11. 19:00 1028 + 0,9
Sa, 28.11. 13:00 1026 + 0,5
Sa, 28.11. 7:00 1025 + 0,5
Sa, 28.11. 1:00 1024 + 0,4
Fr, 27.11. 19:00 1023 + 0,6
Fr, 27.11. 13:00 1023 0,0
Ortszeit Luftdruck NN (hPa) Tendenz (hPa in 3 Std.)
So, 29.11. 9:00 1028 + 0,6
So, 29.11. 8:50 1028 keine Meldung
So, 29.11. 8:40 1028 keine Meldung
So, 29.11. 8:30 1028 + 0,5
So, 29.11. 8:20 1028 keine Meldung
So, 29.11. 8:10 1028 keine Meldung
So, 29.11. 8:00 1028 + 0,6
So, 29.11. 7:30 1028 + 0,2
So, 29.11. 7:00 1028 - 0,1
So, 29.11. 6:30 1027 - 0,4
So, 29.11. 6:00 1027 - 0,4
Ortszeit Schneehöhe (cm)
So, 29.11. 7:00 0
So, 29.11. 1:00 0
Sa, 28.11. 19:00 0
Sa, 28.11. 13:00 0
Sa, 28.11. 7:00 0
Sa, 28.11. 1:00 0
Fr, 27.11. 19:00 0
Fr, 27.11. 13:00 0
Ortszeit Schneehöhe (cm)
So, 29.11. 9:00 0
So, 29.11. 8:50 0
So, 29.11. 8:40 0
So, 29.11. 8:30 0
So, 29.11. 8:20 0
So, 29.11. 8:10 0
So, 29.11. 8:00 0
So, 29.11. 7:30 0
So, 29.11. 7:00 0
So, 29.11. 6:30 0
So, 29.11. 6:00 0
Link zu dieser Seite / Seite empfehlen

Das Wetter in ...